Time;durP1;ratioP1;P1;durP2;ratioP2;P2;SDS_P1;SDS_P2;PMS_P1;PMS_P2;Temp;Humidity;BMP_temperature;BMP_pressure;BME280_temperature;BME280_humidity;BME280_pressure;Samples;Min_cycle;Max_cycle;Signal;HPM_P1;HPM_P2
2023/07/05 00:01:11;;;;;;;21.13;12.57;;;16.70;99.90;;;16.96;100.00;100102.47;5068180;28;20071;-68
2023/07/05 00:03:41;;;;;;;24.30;12.65;;;16.60;99.90;;;16.87;100.00;100106.41;5052544;28;20041;-69
2023/07/05 00:06:09;;;;;;;19.35;12.95;;;16.50;99.90;;;16.88;100.00;100091.22;5052462;28;20044;-68
2023/07/05 00:08:38;;;;;;;24.30;13.70;;;16.50;99.90;;;16.79;100.00;100079.16;5052478;28;20517;-69
2023/07/05 00:11:08;;;;;;;22.00;13.85;;;16.40;99.90;;;16.85;100.00;100064.66;5048620;28;20498;-68
2023/07/05 00:13:36;;;;;;;;;;;16.50;99.90;;;16.77;100.00;100048.97;5052938;28;20041;-68
2023/07/05 00:16:07;;;;;;;23.17;13.10;;;16.40;99.90;;;16.86;100.00;100039.72;5052408;28;19974;-69
2023/07/05 00:18:36;;;;;;;;;;;16.50;99.90;;;16.71;100.00;100030.53;5053490;28;20068;-68
2023/07/05 00:21:08;;;;;;;19.58;13.20;;;16.40;99.90;;;16.73;100.00;100027.78;5051320;28;19974;-69
2023/07/05 00:23:39;;;;;;;23.40;13.35;;;16.40;99.90;;;16.73;100.00;100031.34;5052572;28;20049;-69
2023/07/05 00:26:08;;;;;;;19.48;13.38;;;16.40;99.90;;;16.86;100.00;100019.19;5048687;28;20053;-69
2023/07/05 00:28:36;;;;;;;27.45;14.70;;;16.50;99.90;;;16.88;100.00;100016.44;5051594;28;20143;-69
2023/07/05 00:31:07;;;;;;;20.50;12.60;;;16.50;99.90;;;16.99;100.00;100009.69;5056715;28;20049;-69
2023/07/05 00:33:37;;;;;;;16.50;13.07;;;16.60;99.90;;;16.93;100.00;100012.66;5053700;28;20457;-69
2023/07/05 00:36:06;;;;;;;19.20;13.00;;;16.60;99.90;;;16.99;100.00;99996.31;5056439;28;20060;-69
2023/07/05 00:38:34;;;;;;;20.80;13.18;;;16.70;99.90;;;17.08;100.00;99993.25;5055214;28;20045;-70
2023/07/05 00:41:02;;;;;;;18.25;11.75;;;16.70;99.90;;;17.13;100.00;99975.19;5056312;28;20405;-69
2023/07/05 00:43:31;;;;;;;15.88;11.00;;;16.70;99.90;;;17.23;100.00;99981.00;5056429;28;20080;-69
2023/07/05 00:46:01;;;;;;;21.60;11.45;;;16.80;99.90;;;17.09;100.00;99944.22;5056158;28;20045;-70
2023/07/05 00:48:37;;;;;;;18.35;10.10;;;16.80;99.90;;;17.12;100.00;99970.81;5056657;28;20167;-69
2023/07/05 00:51:15;;;;;;;16.38;10.38;;;16.80;99.90;;;17.21;100.00;99958.81;5056218;28;20130;-69
2023/07/05 00:53:44;;;;;;;22.55;10.10;;;16.80;99.90;;;17.11;100.00;99987.75;5063563;28;20505;-70
2023/07/05 00:56:21;;;;;;;15.20;9.70;;;16.80;99.90;;;17.26;100.00;99985.34;5051490;28;20483;-70
2023/07/05 00:58:51;;;;;;;16.00;9.52;;;16.90;99.90;;;17.44;100.00;99979.16;5053696;28;20041;-71
2023/07/05 01:01:21;;;;;;;10.63;7.57;;;17.10;99.90;;;17.47;100.00;99962.97;5054832;28;20049;-72
2023/07/05 01:03:55;;;;;;;12.13;6.60;;;17.10;99.90;;;17.34;100.00;99959.13;5056108;28;20288;-70
2023/07/05 01:06:25;;;;;;;10.52;5.97;;;17.10;99.90;;;17.44;100.00;99941.72;5054747;28;20056;-71
2023/07/05 01:08:54;;;;;;;11.68;5.32;;;17.10;99.90;;;17.52;100.00;99942.25;5052294;28;20053;-71
2023/07/05 01:11:32;;;;;;;8.60;5.15;;;17.20;99.90;;;17.60;100.00;99946.28;5055965;28;20452;-70
2023/07/05 01:14:08;;;;;;;13.40;5.78;;;17.30;99.90;;;17.72;100.00;99959.09;5055982;28;20071;-71
2023/07/05 01:16:56;;;;;;;11.93;5.03;;;17.40;99.90;;;17.75;100.00;99940.19;5055528;28;20393;-70
2023/07/05 01:19:54;;;;;;;12.70;5.30;;;17.40;99.90;;;17.68;97.79;99956.63;5054720;28;20056;-71
2023/07/05 01:22:59;;;;;;;12.10;5.28;;;17.30;99.90;;;17.80;95.88;99937.31;5054918;28;20056;-70
2023/07/05 01:25:54;;;;;;;12.38;4.80;;;17.40;99.90;;;17.77;93.98;99935.66;5051074;28;20053;-69
2023/07/05 01:29:18;;;;;;;12.05;5.38;;;17.40;99.90;;;17.82;92.58;99956.84;5052381;28;20480;-69
2023/07/05 01:31:56;;;;;;;14.32;4.82;;;17.40;99.90;;;17.96;93.00;99951.69;5032939;28;20106;-69
2023/07/05 01:34:43;;;;;;;11.52;4.68;;;17.50;99.90;;;17.93;93.01;99967.88;5055500;28;20060;-69
2023/07/05 01:37:30;;;;;;;13.77;5.53;;;17.50;99.90;;;17.96;92.95;99976.59;5052957;28;20049;-70
2023/07/05 01:39:59;;;;;;;19.10;5.63;;;17.50;99.90;;;17.96;92.78;99981.97;5049875;28;20052;-68
2023/07/05 01:42:32;;;;;;;11.77;4.88;;;17.60;99.90;;;17.75;92.29;99969.63;5055256;28;20080;-70
2023/07/05 01:45:01;;;;;;;14.15;5.43;;;17.40;99.90;;;17.81;93.19;99979.16;5055213;28;20076;-69
2023/07/05 01:47:37;;;;;;;15.13;5.63;;;17.40;99.90;;;17.95;93.39;99982.03;5055111;28;20379;-69
2023/07/05 01:50:17;;;;;;;15.02;5.43;;;17.50;99.90;;;17.94;93.53;99980.31;5054843;28;20451;-69
2023/07/05 01:52:54;;;;;;;15.18;5.22;;;17.50;99.90;;;17.74;93.01;99973.25;5052621;28;20041;-68
2023/07/05 01:55:32;;;;;;;15.82;6.20;;;17.40;99.90;;;17.66;94.00;99971.88;5055122;28;20045;-68
2023/07/05 01:58:07;;;;;;;13.52;5.82;;;17.30;99.90;;;17.60;95.36;99974.84;5050597;28;20045;-69
2023/07/05 02:00:37;;;;;;;14.70;5.28;;;17.20;99.90;;;17.60;95.31;99980.19;5054964;28;20441;-68
2023/07/05 02:03:14;;;;;;;14.20;5.60;;;17.20;99.90;;;17.36;95.72;99954.59;5053244;28;20480;-68
2023/07/05 02:05:43;;;;;;;12.93;5.13;;;17.10;99.90;;;17.40;95.45;99969.53;5066470;28;20379;-68
2023/07/05 02:08:13;;;;;;;9.75;5.38;;;17.00;99.90;;;17.35;95.33;99974.22;5054504;28;20049;-68
2023/07/05 02:10:41;;;;;;;14.20;6.03;;;17.00;99.90;;;17.22;98.05;99979.28;5051239;28;20107;-69
2023/07/05 02:13:12;;;;;;;10.43;5.75;;;16.80;99.90;;;17.13;100.00;99964.50;5053449;28;20444;-69
2023/07/05 02:15:41;;;;;;;14.02;6.85;;;16.70;99.90;;;17.06;100.00;99978.22;5054647;28;20049;-70
2023/07/05 02:18:10;;;;;;;12.32;7.28;;;16.60;99.90;;;16.90;100.00;99967.34;5053326;28;20098;-70
2023/07/05 02:20:41;;;;;;;12.70;7.60;;;16.50;99.90;;;16.73;100.00;99969.91;5053327;28;20049;-70
2023/07/05 02:23:10;;;;;;;15.90;8.73;;;16.40;99.90;;;16.72;100.00;99975.31;5050764;28;20128;-70
2023/07/05 02:25:38;;;;;;;14.23;7.97;;;16.30;99.90;;;16.48;100.00;99963.91;5054381;28;20057;-70
2023/07/05 02:28:07;;;;;;;15.02;8.07;;;16.20;99.90;;;16.50;100.00;99982.50;5054437;28;20123;-70
2023/07/05 02:30:36;;;;;;;15.85;8.05;;;16.20;99.90;;;16.38;100.00;99970.53;5054380;28;20122;-70
2023/07/05 02:33:05;;;;;;;12.73;7.82;;;16.00;99.90;;;16.30;100.00;99926.44;5054289;28;20405;-69
2023/07/05 02:35:36;;;;;;;12.55;7.50;;;16.00;99.90;;;16.36;100.00;100006.22;5054275;28;20044;-69
2023/07/05 02:38:05;;;;;;;9.60;6.88;;;16.00;99.90;;;16.22;100.00;99956.06;5052578;28;20453;-69
2023/07/05 02:40:34;;;;;;;10.55;6.90;;;15.90;99.90;;;16.17;100.00;99955.41;5049595;28;20049;-69
2023/07/05 02:43:04;;;;;;;11.55;6.70;;;15.80;99.90;;;16.18;100.00;99957.16;5048727;28;20055;-69
2023/07/05 02:45:33;;;;;;;11.85;7.38;;;15.80;99.90;;;16.20;100.00;99957.97;5050157;28;20049;-69
2023/07/05 02:48:03;;;;;;;11.35;7.25;;;15.80;99.90;;;16.11;100.00;99953.88;5052471;28;20053;-69
2023/07/05 02:50:31;;;;;;;10.50;7.38;;;15.80;99.90;;;15.96;100.00;99935.84;5053668;28;20045;-69
2023/07/05 02:53:01;;;;;;;14.32;8.07;;;15.70;99.90;;;16.19;100.00;99958.88;5052017;28;20049;-69
2023/07/05 02:55:29;;;;;;;12.83;7.60;;;15.80;99.90;;;16.24;100.00;99957.75;5053970;28;20079;-68
2023/07/05 02:57:58;;;;;;;10.38;7.55;;;15.80;99.90;;;16.14;100.00;99953.72;5053548;28;20082;-68
2023/07/05 03:00:29;;;;;;;15.18;8.35;;;15.80;99.90;;;16.04;100.00;99978.19;5052268;28;20076;-69
2023/07/05 03:02:57;;;;;;;13.40;7.90;;;15.80;99.90;;;16.07;100.00;99932.72;5052568;28;20048;-69
2023/07/05 03:05:26;;;;;;;11.20;7.82;;;15.80;99.90;;;16.07;100.00;99941.59;5049820;28;20446;-70
2023/07/05 03:07:54;;;;;;;12.45;7.68;;;15.70;99.90;;;15.88;100.00;99943.28;5053724;28;20055;-69
2023/07/05 03:10:24;;;;;;;15.63;7.53;;;15.60;99.90;;;15.88;100.00;99945.06;5053436;28;20056;-70
2023/07/05 03:12:52;;;;;;;9.73;7.40;;;15.50;99.90;;;15.89;100.00;99952.16;5053916;28;20064;-69
2023/07/05 03:15:21;;;;;;;11.18;7.38;;;15.50;99.90;;;15.83;100.00;99934.59;5050471;28;20288;-69
2023/07/05 03:17:49;;;;;;;12.27;7.03;;;15.50;99.90;;;15.84;100.00;99917.66;5068852;28;20057;-69
2023/07/05 03:20:19;;;;;;;13.17;8.33;;;15.50;99.90;;;15.86;100.00;99933.59;5052139;28;20064;-70
2023/07/05 03:22:48;;;;;;;16.05;8.05;;;15.50;99.90;;;15.90;100.00;99933.44;5053375;28;20075;-68
2023/07/05 03:25:16;;;;;;;14.60;8.38;;;15.50;99.90;;;15.87;100.00;99933.53;5053303;28;20041;-69
2023/07/05 03:27:46;;;;;;;12.52;7.97;;;15.50;99.90;;;15.81;100.00;99909.81;5049638;28;20485;-69
2023/07/05 03:30:15;;;;;;;11.52;7.78;;;15.50;99.90;;;15.78;100.00;99939.25;5049902;28;20049;-70
2023/07/05 03:32:44;;;;;;;14.23;8.00;;;15.40;99.90;;;15.73;100.00;99917.25;5051887;28;20049;-70
2023/07/05 03:35:15;;;;;;;13.68;7.68;;;15.40;99.90;;;15.65;100.00;99916.69;5053127;28;20477;-70
2023/07/05 03:37:43;;;;;;;11.35;7.03;;;15.40;99.90;;;15.66;100.00;99930.91;5051611;28;20076;-71
2023/07/05 03:40:13;;;;;;;9.75;7.07;;;15.40;99.90;;;15.67;100.00;99904.16;5050983;28;20449;-70
2023/07/05 03:42:41;;;;;;;14.05;7.13;;;15.30;99.90;;;15.71;100.00;99905.78;5053143;28;20453;-70
2023/07/05 03:45:11;;;;;;;11.93;7.47;;;15.40;99.90;;;15.68;100.00;99899.72;5053046;28;20067;-69
2023/07/05 03:47:40;;;;;;;11.10;6.75;;;15.40;99.90;;;15.63;100.00;99910.53;5047868;28;20072;-69
2023/07/05 03:50:09;;;;;;;16.13;6.55;;;15.30;99.90;;;15.63;100.00;99907.88;5052645;28;20056;-69
2023/07/05 03:52:37;;;;;;;14.60;7.22;;;15.30;99.90;;;15.71;100.00;99916.44;5052738;28;20080;-69
2023/07/05 03:55:07;;;;;;;10.45;6.25;;;15.40;99.90;;;15.72;100.00;99941.28;5052663;28;20065;-69
2023/07/05 03:57:35;;;;;;;11.20;5.70;;;15.40;99.90;;;15.87;100.00;99944.19;5052623;28;20474;-69
2023/07/05 04:00:05;;;;;;;9.07;5.10;;;15.50;99.90;;;15.94;100.00;99947.50;5052522;28;20284;-69
2023/07/05 04:02:40;;;;;;;17.42;5.35;;;15.60;99.90;;;15.75;100.00;99941.19;5052282;28;20045;-70
2023/07/05 04:05:09;;;;;;;10.20;4.82;;;15.40;99.90;;;15.72;100.00;99938.63;5048697;28;20045;-70
2023/07/05 04:07:37;;;;;;;12.95;4.60;;;15.40;99.90;;;15.72;100.00;99950.16;5052368;28;20044;-70
2023/07/05 04:10:07;;;;;;;20.13;5.13;;;15.40;99.90;;;15.72;100.00;99939.50;5052496;28;20057;-70
2023/07/05 04:12:35;;;;;;;15.25;4.82;;;15.30;99.90;;;15.86;100.00;99953.16;5052552;28;20052;-70
2023/07/05 04:15:05;;;;;;;21.23;5.82;;;15.40;99.90;;;15.78;100.00;99941.91;5053166;28;20052;-70
2023/07/05 04:17:33;;;;;;;21.08;5.57;;;15.40;99.90;;;15.66;100.00;99928.22;5051523;28;20130;-70
2023/07/05 04:20:04;;;;;;;24.60;6.90;;;15.40;99.90;;;15.74;100.00;99952.75;5052806;28;20051;-70
2023/07/05 04:22:32;;;;;;;17.73;4.90;;;15.40;99.90;;;15.76;100.00;99954.44;5053307;28;20087;-70
2023/07/05 04:25:00;;;;;;;21.08;5.90;;;15.40;99.90;;;15.74;100.00;99952.75;5053007;28;20052;-70
2023/07/05 04:27:29;;;;;;;18.40;5.40;;;15.40;99.90;;;15.79;100.00;99962.34;5060004;28;20509;-70
2023/07/05 04:29:57;;;;;;;11.27;5.22;;;15.30;99.90;;;15.69;100.00;99968.97;5048915;28;20041;-70
2023/07/05 04:32:26;;;;;;;16.15;5.85;;;15.40;99.90;;;15.75;100.00;99962.50;5052837;28;20471;-70
2023/07/05 04:34:55;;;;;;;17.02;6.20;;;15.40;99.90;;;15.68;100.00;99958.34;5052290;28;20087;-70
2023/07/05 04:37:25;;;;;;;17.30;5.63;;;15.30;99.90;;;15.54;100.00;99940.25;5052140;28;20111;-69
2023/07/05 04:40:04;;;;;;;;;;;15.20;99.90;;;15.55;100.00;99965.09;5052662;28;20127;-69
2023/07/05 04:42:33;;;;;;;21.02;6.22;;;15.20;99.90;;;15.60;100.00;99971.13;5064040;28;20340;-69
2023/07/05 04:45:01;;;;;;;15.77;5.25;;;15.20;99.90;;;15.50;100.00;99973.28;5052074;28;20048;-69
2023/07/05 04:47:30;;;;;;;18.80;5.78;;;15.10;99.90;;;15.47;99.51;99970.72;5052025;28;20037;-69
2023/07/05 04:49:58;;;;;;;16.17;5.95;;;15.10;99.90;;;15.33;97.40;99967.66;5051050;28;20055;-69
2023/07/05 04:52:28;;;;;;;15.13;5.53;;;15.00;99.90;;;15.37;98.05;99978.16;5052091;28;20077;-69
2023/07/05 04:54:56;;;;;;;18.70;5.95;;;15.00;99.90;;;15.48;97.76;99976.91;5052564;28;20072;-68
2023/07/05 04:57:24;;;;;;;21.63;6.15;;;15.10;99.90;;;15.31;96.40;99964.22;5052008;28;20111;-69
2023/07/05 05:00:04;;;;;;;15.77;6.03;;;15.00;99.90;;;15.36;96.63;99956.91;5052105;28;20080;-68
2023/07/05 05:02:32;;;;;;;16.17;6.40;;;15.00;99.90;;;15.31;96.12;99964.22;5048944;28;20540;-68
2023/07/05 05:05:01;;;;;;;24.00;6.97;;;14.90;99.90;;;15.36;96.01;99965.78;5052277;28;20045;-68
2023/07/05 05:07:31;;;;;;;17.13;6.15;;;15.00;99.90;;;15.32;95.87;99969.50;5052122;28;20080;-68
2023/07/05 05:10:01;;;;;;;17.57;5.73;;;15.00;99.90;;;15.49;96.37;99979.53;5051780;28;20053;-68
2023/07/05 05:12:29;;;;;;;19.52;5.55;;;15.10;99.90;;;15.41;95.24;99986.06;5051883;28;20536;-68
2023/07/05 05:14:57;;;;;;;13.43;5.25;;;15.10;99.90;;;15.34;96.27;99991.63;5053149;28;20041;-68
2023/07/05 05:17:26;;;;;;;20.45;6.03;;;15.00;99.90;;;15.32;96.23;99998.78;5054453;28;20052;-68
2023/07/05 05:19:55;;;;;;;25.10;5.90;;;15.00;99.90;;;15.14;96.67;99990.59;5055946;28;20482;-68
2023/07/05 05:22:23;;;;;;;19.58;5.20;;;14.90;99.90;;;15.06;97.79;100017.53;5052092;28;20091;-68
2023/07/05 05:24:53;;;;;;;19.70;6.03;;;14.80;99.90;;;14.91;97.77;100023.41;5055431;28;20045;-68
2023/07/05 05:27:21;;;;;;;18.45;5.82;;;14.60;99.90;;;14.84;96.94;100019.22;5055202;28;20179;-68
2023/07/05 05:29:50;;;;;;;14.70;5.07;;;14.50;99.90;;;14.76;97.00;100029.28;5055267;28;20048;-68
2023/07/05 05:32:18;;;;;;;20.38;5.18;;;14.40;99.90;;;14.68;96.33;100039.31;5055233;28;20037;-68
2023/07/05 05:34:47;;;;;;;18.20;4.63;;;14.30;99.90;;;14.55;96.49;100024.69;5055127;28;20040;-68
2023/07/05 05:37:15;;;;;;;11.02;3.63;;;14.30;99.90;;;14.33;95.02;100028.97;5054969;28;20056;-69
2023/07/05 05:39:44;;;;;;;15.73;4.97;;;14.10;99.90;;;14.27;95.46;100023.81;5055407;28;20049;-69
2023/07/05 05:42:14;;;;;;;16.65;4.53;;;14.00;99.90;;;14.14;95.60;100019.84;5054956;28;20449;-69
2023/07/05 05:44:42;;;;;;;15.40;4.30;;;13.90;99.90;;;14.20;95.58;100019.63;5051178;28;20103;-68
2023/07/05 05:47:11;;;;;;;16.92;4.50;;;13.90;99.90;;;14.12;96.19;100016.34;5054806;28;20049;-68
2023/07/05 05:49:39;;;;;;;13.95;3.97;;;13.80;99.90;;;14.06;95.53;100022.75;5054904;28;20052;-69
2023/07/05 05:52:08;;;;;;;16.98;4.30;;;13.80;99.90;;;14.02;95.39;100014.91;5054839;28;20048;-69
2023/07/05 05:54:37;;;;;;;14.48;4.45;;;13.70;99.90;;;13.96;96.40;100015.97;5054772;28;20429;-70
2023/07/05 05:57:06;;;;;;;23.52;5.07;;;13.60;99.90;;;14.03;97.17;100014.00;5054800;28;20049;-68
2023/07/05 05:59:36;;;;;;;17.20;4.80;;;13.70;99.90;;;13.98;97.74;100002.63;5055240;28;20137;-69
2023/07/05 06:02:04;;;;;;;17.55;4.93;;;13.70;99.90;;;14.01;99.69;100010.53;5054999;28;20414;-69
2023/07/05 06:04:33;;;;;;;25.58;5.55;;;13.70;99.90;;;14.04;100.00;99994.44;5054813;28;20053;-70
2023/07/05 06:07:01;;;;;;;26.38;6.82;;;13.70;99.90;;;14.12;100.00;100000.41;5050841;28;20045;-69
2023/07/05 06:09:30;;;;;;;19.48;6.15;;;13.80;99.90;;;14.14;100.00;100014.50;5050869;28;20120;-69
2023/07/05 06:11:58;;;;;;;20.25;6.53;;;13.80;99.90;;;14.20;100.00;99990.38;5053308;28;20053;-70
2023/07/05 06:14:27;;;;;;;30.20;7.07;;;13.80;99.90;;;14.32;100.00;100024.59;5054609;28;20398;-69
2023/07/05 06:16:59;;;;;;;26.25;6.70;;;14.00;99.90;;;14.25;100.00;100009.72;5054305;28;20091;-69
2023/07/05 06:19:28;;;;;;;22.45;7.07;;;14.00;99.90;;;14.34;100.00;100020.09;5054319;28;20063;-70
2023/07/05 06:21:56;;;;;;;27.63;7.93;;;14.00;99.90;;;14.38;100.00;100016.41;5054180;28;20065;-70
2023/07/05 06:24:24;;;;;;;20.88;6.75;;;14.10;99.90;;;14.37;100.00;100025.31;5054221;28;20083;-70
2023/07/05 06:26:53;;;;;;;25.30;6.95;;;14.10;99.90;;;14.51;100.00;100055.00;5053896;28;20072;-70
2023/07/05 06:29:21;;;;;;;25.55;7.20;;;14.20;99.90;;;14.01;100.00;99936.94;5053147;28;20041;-70
2023/07/05 06:31:50;;;;;;;20.63;7.25;;;14.20;99.90;;;14.56;100.00;100045.03;5050455;28;20086;-69
2023/07/05 06:34:24;;;;;;;29.10;8.45;;;14.30;99.90;;;14.71;100.00;100039.19;5053053;28;20106;-70
2023/07/05 06:36:53;;;;;;;23.58;7.18;;;14.30;99.90;;;14.59;100.00;100046.75;5054044;28;20045;-69
2023/07/05 06:39:22;;;;;;;27.33;7.88;;;14.40;99.90;;;14.70;100.00;100065.88;5053953;28;20056;-70
2023/07/05 06:41:50;;;;;;;30.00;7.93;;;14.40;99.90;;;14.71;100.00;100049.84;5054159;28;20412;-73
2023/07/05 06:44:18;;;;;;;27.45;7.53;;;14.40;99.90;;;14.69;100.00;100075.63;5054169;28;20052;-70
2023/07/05 06:46:47;;;;;;;28.92;8.27;;;14.40;99.90;;;14.65;100.00;100063.38;5053766;28;20469;-74
2023/07/05 06:49:15;;;;;;;24.77;7.85;;;14.30;99.90;;;14.70;100.00;100093.38;5053911;28;20051;-70
2023/07/05 06:51:45;;;;;;;25.05;7.45;;;14.30;99.90;;;14.72;100.00;100118.16;5053725;28;20085;-70
2023/07/05 06:54:14;;;;;;;16.30;6.53;;;14.40;99.90;;;14.72;100.00;100102.19;5053933;28;20128;-69
2023/07/05 06:56:42;;;;;;;23.77;6.65;;;14.40;99.90;;;14.75;100.00;100107.38;5053670;28;20118;-70
2023/07/05 06:59:10;;;;;;;21.50;7.07;;;14.50;99.90;;;14.85;100.00;100131.91;5053610;28;20079;-70
2023/07/05 07:01:39;;;;;;;15.32;6.43;;;14.50;99.90;;;14.79;100.00;100119.66;5053827;28;20053;-70
2023/07/05 07:04:07;;;;;;;24.13;7.88;;;14.50;99.90;;;14.84;100.00;100146.16;5054001;28;20060;-73
2023/07/05 07:06:36;;;;;;;22.50;7.25;;;14.50;99.90;;;14.92;100.00;100147.66;5053365;28;20044;-69
2023/07/05 07:09:06;;;;;;;24.30;7.28;;;14.60;99.90;;;14.94;100.00;100128.97;5053336;28;20087;-71
2023/07/05 07:11:35;;;;;;;23.58;7.05;;;14.70;99.90;;;14.97;98.72;100167.00;5068889;28;20107;-70
2023/07/05 07:14:03;;;;;;;19.75;7.35;;;14.70;99.90;;;15.05;98.36;100156.97;5064946;28;20045;-71
2023/07/05 07:16:32;;;;;;;16.38;6.40;;;14.70;99.90;;;15.10;97.79;100165.66;5053223;28;20041;-73
2023/07/05 07:19:01;;;;;;;22.83;7.53;;;14.80;99.90;;;15.17;97.44;100180.53;5049730;28;20053;-74
2023/07/05 07:21:30;;;;;;;16.25;7.07;;;14.90;99.90;;;15.21;96.24;100190.13;5053388;28;20068;-76
2023/07/05 07:23:58;;;;;;;16.58;6.60;;;14.90;99.90;;;15.28;96.36;100199.66;5053096;28;20068;-73
2023/07/05 07:26:29;;;;;;;17.50;6.93;;;15.00;99.90;;;15.35;95.69;100217.19;5053599;28;20045;-70
2023/07/05 07:28:58;;;;;;;14.02;7.03;;;15.00;99.90;;;15.37;95.61;100219.78;5052203;28;20559;-69
2023/07/05 07:31:29;;;;;;;15.77;6.90;;;15.10;99.90;;;15.45;95.50;100222.25;5053311;28;20045;-71
2023/07/05 07:34:00;;;;;;;19.75;7.18;;;15.10;99.90;;;15.46;93.86;100239.97;5049448;28;20071;-70
2023/07/05 07:36:31;;;;;;;13.13;6.40;;;15.10;99.90;;;15.37;94.51;100236.66;5053371;28;20418;-68
2023/07/05 07:39:00;;;;;;;13.93;5.88;;;15.10;99.90;;;15.35;93.37;100195.88;5050019;28;20053;-68
2023/07/05 07:41:33;;;;;;;18.08;6.72;;;15.10;99.90;;;15.41;95.21;100263.22;5068687;28;20060;-68
2023/07/05 07:44:05;;;;;;;18.92;7.28;;;15.10;99.90;;;15.32;96.44;100254.59;5053127;28;20457;-69
2023/07/05 07:46:36;;;;;;;17.67;6.78;;;15.10;99.90;;;15.46;96.80;100274.63;5053280;28;20444;-70
2023/07/05 07:49:06;;;;;;;16.80;7.28;;;15.10;99.90;;;15.30;96.97;100269.78;5049696;28;20051;-75
2023/07/05 07:51:36;;;;;;;;;;;15.10;99.90;;;15.39;95.87;100277.44;5053550;28;20044;-69
2023/07/05 07:54:13;;;;;;;14.20;7.03;;;15.10;99.90;;;15.49;96.04;100293.16;5052599;28;19955;-68
2023/07/05 07:56:45;;;;;;;16.95;6.90;;;15.20;99.90;;;15.48;95.63;100276.31;5052462;28;20100;-75
2023/07/05 07:59:15;;;;;;;19.00;6.95;;;15.20;99.90;;;15.75;95.79;100302.03;5048703;28;20060;-74
2023/07/05 08:01:46;;;;;;;18.97;6.97;;;15.40;99.90;;;15.68;94.58;100259.63;5052816;28;20049;-70
2023/07/05 08:04:16;;;;;;;18.17;7.05;;;15.40;99.90;;;15.58;94.11;100261.72;5053119;28;20045;-70
2023/07/05 08:06:48;;;;;;;17.63;7.35;;;15.50;99.90;;;15.80;93.72;100304.53;5060125;28;20060;-70
2023/07/05 08:09:22;;;;;;;15.88;7.18;;;15.50;99.90;;;16.04;93.69;100314.34;5052420;28;20041;-69
2023/07/05 08:11:52;;;;;;;19.13;6.90;;;15.70;99.90;;;15.91;93.50;100308.56;5047365;28;20061;-69
2023/07/05 08:14:20;;;;;;;19.00;6.53;;;15.70;99.90;;;16.08;93.42;100329.31;5051432;28;20057;-73
2023/07/05 08:16:48;;;;;;;25.67;7.70;;;15.70;99.90;;;16.13;93.41;100346.91;5052938;28;20076;-70
2023/07/05 08:19:19;;;;;;;23.38;6.78;;;15.80;99.90;;;16.19;92.93;100356.50;5052372;28;20041;-70
2023/07/05 08:21:47;;;;;;;19.75;7.18;;;15.80;99.90;;;16.25;92.50;100356.28;5052766;28;20106;-71
2023/07/05 08:24:17;;;;;;;18.25;6.40;;;15.90;99.90;;;16.26;92.06;100358.88;5052345;28;20409;-70
2023/07/05 08:26:49;;;;;;;19.00;6.85;;;16.00;99.90;;;16.34;92.29;100355.94;5052369;28;20049;-75
2023/07/05 08:29:18;;;;;;;20.27;6.82;;;16.00;99.90;;;16.44;91.59;100381.38;5052267;28;20056;-71
2023/07/05 08:31:48;;;;;;;19.07;5.97;;;16.10;99.90;;;16.43;90.64;100371.63;5048686;28;20536;-72
2023/07/05 08:34:18;;;;;;;23.85;6.85;;;16.20;99.90;;;16.50;91.02;100349.16;5052373;28;20297;-73
2023/07/05 08:36:47;;;;;;;21.77;6.90;;;16.30;99.90;;;16.64;89.75;100396.72;5052539;28;20045;-72
2023/07/05 08:39:15;;;;;;;16.30;6.43;;;16.30;99.90;;;16.72;89.33;100416.88;5052282;28;20041;-72
2023/07/05 08:42:26;;;;;;;14.98;6.10;;;16.40;99.90;;;16.78;88.52;100415.78;5052186;28;20494;-72
2023/07/05 08:45:13;;;;;;;15.95;5.82;;;16.40;99.90;;;16.89;87.67;100429.59;5045328;28;20115;-73
2023/07/05 08:47:48;;;;;;;17.80;5.63;;;16.60;99.90;;;17.11;87.75;100431.41;5052238;28;20095;-77
2023/07/05 08:50:25;;;;;;;17.35;5.88;;;16.70;99.90;;;17.13;87.38;100434.88;5050687;28;20084;-73
2023/07/05 08:53:06;;;;;;;17.02;6.60;;;16.80;99.90;;;17.19;86.61;100435.59;5056332;28;20056;-69
2023/07/05 08:55:49;;;;;;;20.23;6.35;;;16.90;99.90;;;17.35;86.85;100467.03;5052345;28;20512;-71
2023/07/05 08:58:25;;;;;;;14.45;6.00;;;17.00;99.90;;;17.29;86.14;100456.56;5056292;28;20044;-74
2023/07/05 09:01:00;;;;;;;17.70;6.60;;;17.00;99.90;;;17.37;86.03;100478.53;5051142;28;20052;-72
2023/07/05 09:03:29;;;;;;;17.50;5.82;;;17.10;99.90;;;17.33;85.26;100474.22;5055834;28;20049;-73
2023/07/05 09:06:14;;;;;;;14.10;5.68;;;17.00;99.90;;;17.45;85.37;100491.59;5056223;28;20397;-72
2023/07/05 09:09:01;;;;;;;14.10;5.70;;;17.10;99.90;;;17.41;84.48;100506.00;5052096;28;20048;-74
2023/07/05 09:11:43;;;;;;;21.02;6.18;;;17.10;99.90;;;17.53;85.08;100508.25;5055876;28;20053;-74
2023/07/05 09:14:27;;;;;;;23.83;6.70;;;17.10;99.90;;;17.53;84.80;100522.50;5053822;28;20436;-73
2023/07/05 09:17:02;;;;;;;19.00;6.25;;;17.20;99.90;;;17.49;84.55;100526.22;5051787;28;20052;-69
2023/07/05 09:19:48;;;;;;;15.57;6.38;;;17.20;99.90;;;17.41;84.62;100535.44;5055543;28;20458;-73
2023/07/05 09:22:24;;;;;;;18.98;6.10;;;17.10;99.90;;;17.38;84.06;100540.91;5051990;28;20060;-72
2023/07/05 09:24:55;;;;;;;23.33;6.43;;;17.10;99.90;;;17.48;84.77;100551.22;5055541;28;20049;-73
2023/07/05 09:27:29;;;;;;;25.75;6.88;;;17.20;99.90;;;17.38;84.06;100551.59;5053478;28;20546;-75
2023/07/05 09:30:06;;;;;;;23.02;5.85;;;17.10;99.90;;;17.39;83.63;100564.03;5055377;28;20044;-76
2023/07/05 09:32:39;;;;;;;22.15;6.28;;;17.10;99.90;;;16.85;83.63;100454.69;5052487;28;20048;-78
2023/07/05 09:35:17;;;;;;;16.15;5.90;;;17.10;99.90;;;17.54;83.45;100560.81;5055374;28;20060;-72
2023/07/05 09:37:54;;;;;;;18.05;6.03;;;17.20;99.90;;;17.61;83.48;100581.06;5054188;28;20044;-73
2023/07/05 09:40:28;;;;;;;17.15;6.18;;;17.30;99.90;;;17.69;83.28;100581.66;5052567;28;20064;-70
2023/07/05 09:42:59;;;;;;;15.82;5.65;;;17.40;99.90;;;17.52;82.56;100558.19;5054079;28;20138;-72
2023/07/05 09:45:28;;;;;;;17.77;5.85;;;17.40;99.90;;;17.66;81.90;100581.75;5055342;28;20045;-73
2023/07/05 09:48:01;;;;;;;14.60;5.82;;;17.40;99.90;;;17.63;81.43;100587.22;5055461;28;20049;-71
2023/07/05 09:50:30;;;;;;;16.92;5.90;;;17.40;99.90;;;17.78;81.67;100616.06;5050469;28;20048;-70
2023/07/05 09:53:03;;;;;;;17.70;5.60;;;17.40;99.90;;;17.92;82.04;100613.75;5053964;28;20148;-72
2023/07/05 09:55:32;;;;;;;16.02;5.65;;;17.50;99.90;;;17.95;81.46;100633.22;5055130;28;20147;-73
2023/07/05 09:58:01;;;;;;;19.83;6.35;;;17.60;99.90;;;18.10;82.03;100623.72;5055032;28;20459;-73
2023/07/05 10:00:35;;;;;;;24.98;6.25;;;17.70;99.90;;;18.23;81.41;100627.69;5054149;28;20843;-73
2023/07/05 10:03:11;;;;;;;15.65;5.50;;;17.90;99.90;;;18.19;79.72;100619.81;5054735;28;20449;-69
2023/07/05 10:05:51;;;;;;;18.33;5.97;;;17.90;99.90;;;18.39;79.19;100628.78;5054855;28;20049;-69
2023/07/05 10:08:23;;;;;;;17.08;5.32;;;18.10;99.90;;;18.22;78.43;100644.66;5054789;28;20041;-70
2023/07/05 10:10:51;;;;;;;16.95;5.55;;;18.00;99.90;;;18.26;77.78;100661.47;5050632;28;20144;-69
2023/07/05 10:13:22;;;;;;;17.75;6.68;;;18.00;99.90;;;18.39;78.49;100658.25;5053426;28;20052;-70
2023/07/05 10:15:53;;;;;;;16.30;6.25;;;18.00;99.90;;;18.43;77.94;100673.31;5054480;28;20103;-73
2023/07/05 10:18:35;;;;;;;16.63;5.53;;;18.10;99.90;;;18.48;78.75;100652.59;5054277;28;20379;-75
2023/07/05 10:21:08;;;;;;;18.90;5.90;;;18.10;99.90;;;18.43;77.52;100653.69;5050874;28;20041;-76
2023/07/05 10:23:37;;;;;;;13.20;4.85;;;18.10;99.90;;;18.35;77.59;100699.47;5054354;28;20060;-74